Time;durP1;ratioP1;P1;durP2;ratioP2;P2;SDS_P1;SDS_P2;PMS_P1;PMS_P2;Temp;Humidity;BMP_temperature;BMP_pressure;BME280_temperature;BME280_humidity;BME280_pressure;Samples;Min_cycle;Max_cycle;Signal;HPM_P1;HPM_P2
2023/08/06 00:00:09;;;;;;;8.20;1.95;;;15.00;82.80;;;;;;5054004;28;20108;-85
2023/08/06 00:02:36;;;;;;;7.28;2.28;;;15.00;82.10;;;;;;5057240;28;20075;-77
2023/08/06 00:05:04;;;;;;;5.95;1.63;;;15.10;82.20;;;;;;5053957;28;20120;-80
2023/08/06 00:07:31;;;;;;;10.52;2.05;;;15.10;81.80;;;;;;5066523;28;20032;-77
2023/08/06 00:09:58;;;;;;;11.15;2.50;;;15.10;81.40;;;;;;5060625;28;20036;-77
2023/08/06 00:12:26;;;;;;;7.88;2.03;;;15.10;81.60;;;;;;5061314;28;20391;-77
2023/08/06 00:14:54;;;;;;;7.68;2.08;;;15.10;81.10;;;;;;5060738;28;20036;-78
2023/08/06 00:17:21;;;;;;;7.00;1.85;;;15.10;81.20;;;;;;5074583;28;20044;-78
2023/08/06 00:19:50;;;;;;;9.35;1.52;;;15.10;80.60;;;;;;5054558;28;20021;-76
2023/08/06 00:22:19;;;;;;;10.50;1.80;;;15.10;80.20;;;;;;5062077;28;20036;-78
2023/08/06 00:24:46;;;;;;;7.57;1.85;;;15.10;80.40;;;;;;5061798;28;20031;-78
2023/08/06 00:27:13;;;;;;;10.27;1.98;;;15.20;80.70;;;;;;5058316;28;20399;-77
2023/08/06 00:29:41;;;;;;;14.50;2.30;;;15.20;80.90;;;;;;5051933;28;20092;-81
2023/08/06 00:32:08;;;;;;;7.97;1.75;;;15.20;80.30;;;;;;5054117;28;20043;-79
2023/08/06 00:34:35;;;;;;;6.75;1.77;;;15.20;80.40;;;;;;5057595;28;20027;-79
2023/08/06 00:37:03;;;;;;;10.23;1.70;;;15.20;80.60;;;;;;5060692;28;20380;-79
2023/08/06 00:39:30;;;;;;;5.22;1.40;;;15.20;80.10;;;;;;5060461;28;20028;-78
2023/08/06 00:41:58;;;;;;;7.88;1.70;;;15.30;79.60;;;;;;5056709;28;20078;-78
2023/08/06 00:44:26;;;;;;;8.00;1.58;;;15.30;79.10;;;;;;5058036;28;20059;-80
2023/08/06 00:46:53;;;;;;;8.20;1.98;;;15.30;79.10;;;;;;5065074;28;20040;-78
2023/08/06 00:49:21;;;;;;;9.68;2.10;;;15.40;79.30;;;;;;5049641;28;20036;-78
2023/08/06 00:51:48;;;;;;;7.38;1.50;;;15.40;79.00;;;;;;5054610;28;20028;-77
2023/08/06 00:54:16;;;;;;;7.88;1.65;;;15.40;78.70;;;;;;5048290;28;20102;-78
2023/08/06 00:56:44;;;;;;;9.20;1.73;;;15.50;78.30;;;;;;5049929;28;20016;-77
2023/08/06 00:59:12;;;;;;;9.02;1.77;;;15.40;78.20;;;;;;5059469;28;20894;-80
2023/08/06 01:01:40;;;;;;;8.98;1.60;;;15.50;78.50;;;;;;5051145;28;20078;-80
2023/08/06 01:04:08;;;;;;;6.63;1.60;;;15.60;78.40;;;;;;5054513;28;20036;-82
2023/08/06 01:06:46;;;;;;;10.68;1.90;;;15.60;78.20;;;;;;5053169;28;20041;-79
2023/08/06 01:09:26;;;;;;;8.35;1.80;;;15.60;78.10;;;;;;5058497;28;20021;-78
2023/08/06 01:12:40;;;;;;;6.35;1.45;;;15.60;77.40;;;;;;5048722;28;20025;-77
2023/08/06 01:15:25;;;;;;;6.22;1.60;;;15.70;77.40;;;;;;5057963;28;20021;-77
2023/08/06 01:17:53;;;;;;;8.30;1.63;;;15.60;77.10;;;;;;5049855;28;20048;-78
2023/08/06 01:20:21;;;;;;;7.20;1.50;;;15.70;77.00;;;;;;5065822;28;20090;-79
2023/08/06 01:22:48;;;;;;;6.20;2.05;;;15.70;77.10;;;;;;5060669;28;20043;-78
2023/08/06 01:25:33;;;;;;;5.10;1.67;;;15.70;76.90;;;;;;5059602;28;20028;-78
2023/08/06 01:28:24;;;;;;;5.82;1.55;;;15.70;77.10;;;;;;5053599;28;20035;-78
2023/08/06 01:30:53;;;;;;;5.90;1.58;;;15.70;77.20;;;;;;5049254;28;20419;-78
2023/08/06 01:33:22;;;;;;;6.32;1.50;;;15.80;77.20;;;;;;5056769;28;20074;-77
2023/08/06 01:35:52;;;;;;;7.07;1.40;;;15.80;77.30;;;;;;5049172;28;20040;-78
2023/08/06 01:38:20;;;;;;;11.45;2.47;;;15.80;76.90;;;;;;5052349;28;20033;-78
2023/08/06 01:40:51;;;;;;;5.30;1.40;;;15.80;76.70;;;;;;5063742;28;20039;-78
2023/08/06 01:43:18;;;;;;;6.53;1.55;;;15.80;76.80;;;;;;5059114;28;20039;-79
2023/08/06 01:45:45;;;;;;;4.47;1.40;;;15.80;76.50;;;;;;5062039;28;20047;-80
2023/08/06 01:48:13;;;;;;;7.40;1.70;;;15.90;76.40;;;;;;5054401;28;20057;-79
2023/08/06 01:50:40;;;;;;;8.18;1.40;;;15.90;76.50;;;;;;5052761;28;20509;-78
2023/08/06 01:53:07;;;;;;;6.38;1.88;;;15.90;76.70;;;;;;5062490;28;20107;-78
2023/08/06 01:55:35;;;;;;;5.55;1.48;;;16.00;76.90;;;;;;5062175;28;20025;-79
2023/08/06 01:58:02;;;;;;;7.10;1.63;;;16.00;76.80;;;;;;5058053;28;20499;-78
2023/08/06 02:00:29;;;;;;;9.45;1.65;;;16.00;76.20;;;;;;5061743;28;20063;-79
2023/08/06 02:02:57;;;;;;;6.95;1.60;;;16.00;76.10;;;;;;5057419;28;20040;-79
2023/08/06 02:05:25;;;;;;;8.80;1.65;;;16.00;76.10;;;;;;5050835;28;20052;-79
2023/08/06 02:07:53;;;;;;;6.38;1.50;;;16.10;76.30;;;;;;5053453;28;20024;-79
2023/08/06 02:10:20;;;;;;;5.13;1.27;;;16.10;76.00;;;;;;5059499;28;20039;-80
2023/08/06 02:12:47;;;;;;;9.32;1.80;;;16.10;76.20;;;;;;5068476;28;20115;-78
2023/08/06 02:15:15;;;;;;;9.10;1.63;;;16.10;76.20;;;;;;5064856;28;20032;-79
2023/08/06 02:17:42;;;;;;;10.27;1.73;;;16.10;75.80;;;;;;5046799;28;20045;-79
2023/08/06 02:20:10;;;;;;;5.05;1.48;;;16.20;75.50;;;;;;5051637;28;20036;-81
2023/08/06 02:22:37;;;;;;;9.18;2.13;;;16.20;75.30;;;;;;5066050;28;20021;-78
2023/08/06 02:25:05;;;;;;;5.45;1.40;;;16.20;75.10;;;;;;5050910;28;20033;-78
2023/08/06 02:27:32;;;;;;;5.68;1.52;;;16.20;75.40;;;;;;5057014;28;20032;-80
2023/08/06 02:30:00;;;;;;;4.55;1.75;;;16.20;75.20;;;;;;5055264;28;20032;-81
2023/08/06 02:32:29;;;;;;;7.22;2.00;;;16.20;74.50;;;;;;5049706;28;20021;-78
2023/08/06 02:34:57;;;;;;;8.98;1.73;;;16.20;74.50;;;;;;5063273;28;20471;-80
2023/08/06 02:37:24;;;;;;;7.22;1.50;;;16.20;75.00;;;;;;5050127;28;20029;-78
2023/08/06 02:39:51;;;;;;;7.28;1.55;;;16.30;74.60;;;;;;5053279;28;20029;-80
2023/08/06 02:42:19;;;;;;;6.22;1.30;;;16.30;73.90;;;;;;5050066;28;20040;-78
2023/08/06 02:44:46;;;;;;;6.45;1.48;;;16.50;74.50;;;;;;5057704;28;20103;-78
2023/08/06 02:47:13;;;;;;;5.63;1.73;;;16.50;74.10;;;;;;5050756;28;20544;-78
2023/08/06 02:49:41;;;;;;;5.47;1.40;;;16.60;74.10;;;;;;5052193;28;20104;-78
2023/08/06 02:52:09;;;;;;;9.95;2.22;;;16.60;73.90;;;;;;5051464;28;20021;-76
2023/08/06 02:54:36;;;;;;;6.18;1.15;;;16.70;74.00;;;;;;5049845;28;20332;-77
2023/08/06 02:57:07;;;;;;;8.40;1.70;;;16.70;73.50;;;;;;5050661;28;20123;-78
2023/08/06 02:59:34;;;;;;;7.78;1.92;;;16.70;73.50;;;;;;5064224;28;20502;-83
2023/08/06 03:02:01;;;;;;;10.77;1.90;;;16.70;73.30;;;;;;5072523;28;20043;-82
2023/08/06 03:04:29;;;;;;;4.22;1.58;;;16.70;72.80;;;;;;5063657;28;20069;-79
2023/08/06 03:06:57;;;;;;;5.05;1.38;;;16.60;72.80;;;;;;5072670;28;20035;-79
2023/08/06 03:09:24;;;;;;;10.90;1.58;;;16.60;73.30;;;;;;5058447;28;20017;-78
2023/08/06 03:11:51;;;;;;;3.40;1.30;;;16.60;72.70;;;;;;5059468;28;20155;-80
2023/08/06 03:14:19;;;;;;;8.85;1.58;;;16.60;72.70;;;;;;5052564;28;20049;-80
2023/08/06 03:16:49;;;;;;;8.55;1.67;;;16.50;72.90;;;;;;5053752;28;20032;-80
2023/08/06 03:19:17;;;;;;;7.18;1.27;;;16.50;72.30;;;;;;5052106;28;20479;-80
2023/08/06 03:21:44;;;;;;;7.50;1.92;;;16.50;72.80;;;;;;5052469;28;20159;-81
2023/08/06 03:24:13;;;;;;;6.20;1.67;;;16.50;72.90;;;;;;5047094;28;20036;-80
2023/08/06 03:26:40;;;;;;;7.18;1.90;;;16.60;73.10;;;;;;5052807;28;20486;-75
2023/08/06 03:29:08;;;;;;;4.00;1.45;;;16.50;72.50;;;;;;5049251;28;20033;-75
2023/08/06 03:31:35;;;;;;;6.05;2.22;;;16.50;72.40;;;;;;5052485;28;20036;-78
2023/08/06 03:34:03;;;;;;;3.88;1.40;;;16.50;72.70;;;;;;5070251;28;20051;-81
2023/08/06 03:36:30;;;;;;;8.15;2.00;;;16.50;72.50;;;;;;5046207;28;20032;-78
2023/08/06 03:38:57;;;;;;;8.30;2.10;;;16.50;72.70;;;;;;5056800;28;20087;-78
2023/08/06 03:41:25;;;;;;;8.05;1.50;;;16.50;72.60;;;;;;5061097;28;20021;-77
2023/08/06 03:43:52;;;;;;;5.28;2.03;;;16.50;72.60;;;;;;5054581;28;20098;-76
2023/08/06 03:46:19;;;;;;;7.75;2.80;;;16.50;72.30;;;;;;5054558;28;20111;-77
2023/08/06 03:48:48;;;;;;;5.68;1.30;;;16.50;72.20;;;;;;5056591;28;20112;-77
2023/08/06 03:51:15;;;;;;;6.78;2.00;;;16.50;72.20;;;;;;5054886;28;20059;-79
2023/08/06 03:53:42;;;;;;;9.70;2.00;;;16.50;72.20;;;;;;5059695;28;20029;-79
2023/08/06 03:56:10;;;;;;;5.30;1.50;;;16.50;72.00;;;;;;5057177;28;20143;-79
2023/08/06 03:58:39;;;;;;;7.97;2.03;;;16.50;71.70;;;;;;5052883;28;20044;-79
2023/08/06 04:01:06;;;;;;;5.30;1.90;;;16.50;71.80;;;;;;5058485;28;20375;-78
2023/08/06 04:03:33;;;;;;;6.50;2.08;;;16.50;72.00;;;;;;5073985;28;20407;-80
2023/08/06 04:06:02;;;;;;;8.65;1.85;;;16.60;71.90;;;;;;5054247;28;20493;-79
2023/08/06 04:08:30;;;;;;;6.45;2.17;;;16.50;71.90;;;;;;5057872;28;20025;-81
2023/08/06 04:10:57;;;;;;;6.65;2.38;;;16.50;72.20;;;;;;5071280;28;20032;-82
2023/08/06 04:13:24;;;;;;;7.90;1.67;;;16.50;72.10;;;;;;5051313;28;20031;-79
2023/08/06 04:15:53;;;;;;;8.30;1.80;;;16.60;71.70;;;;;;5057718;28;20033;-79
2023/08/06 04:18:20;;;;;;;6.15;1.55;;;16.60;71.80;;;;;;5061235;28;20068;-82
2023/08/06 04:20:49;;;;;;;5.30;1.45;;;16.60;71.40;;;;;;5056095;28;20029;-80
2023/08/06 04:23:16;;;;;;;8.32;2.20;;;16.60;71.20;;;;;;5059273;28;20277;-79
2023/08/06 04:25:44;;;;;;;9.25;2.05;;;16.60;70.90;;;;;;5058786;28;20041;-80
2023/08/06 04:28:11;;;;;;;6.18;1.60;;;16.60;70.80;;;;;;5055184;28;20029;-79
2023/08/06 04:30:39;;;;;;;6.50;1.80;;;16.60;70.90;;;;;;5059850;28;20568;-82
2023/08/06 04:33:09;;;;;;;6.22;1.60;;;16.60;71.20;;;;;;5055167;28;20029;-80
2023/08/06 04:35:36;;;;;;;4.75;1.50;;;16.60;71.50;;;;;;5052170;28;20479;-80
2023/08/06 04:38:05;;;;;;;8.05;2.25;;;16.60;71.60;;;;;;5049709;28;20032;-80
2023/08/06 04:40:36;;;;;;;6.63;1.60;;;16.60;71.90;;;;;;5057151;28;20029;-78
2023/08/06 04:43:03;;;;;;;3.40;1.40;;;16.60;71.50;;;;;;5053862;28;20025;-79
2023/08/06 04:45:31;;;;;;;6.88;1.42;;;16.70;71.70;;;;;;5050535;28;20495;-84
2023/08/06 04:47:58;;;;;;;7.57;1.63;;;16.70;71.70;;;;;;5051610;28;20040;-79
2023/08/06 04:50:25;;;;;;;8.35;1.48;;;16.60;71.40;;;;;;5054729;28;20494;-79
2023/08/06 04:52:53;;;;;;;7.13;1.30;;;16.60;71.10;;;;;;5053259;28;20029;-80
2023/08/06 04:55:20;;;;;;;6.28;1.35;;;16.60;70.80;;;;;;5051878;28;20040;-79
2023/08/06 04:57:47;;;;;;;6.70;1.73;;;16.60;71.10;;;;;;5052888;28;20036;-79
2023/08/06 05:00:15;;;;;;;4.18;1.10;;;16.70;71.20;;;;;;5053893;28;20029;-87
2023/08/06 05:02:42;;;;;;;3.58;1.00;;;16.60;71.30;;;;;;5054677;28;20029;-80
2023/08/06 05:05:10;;;;;;;3.90;1.35;;;16.60;71.30;;;;;;5049953;28;20037;-83
2023/08/06 05:07:37;;;;;;;8.75;1.35;;;16.60;71.20;;;;;;5052440;28;20436;-85
2023/08/06 05:10:05;;;;;;;6.35;1.38;;;16.60;71.20;;;;;;5053787;28;20025;-78
2023/08/06 05:12:32;;;;;;;7.60;0.93;;;16.60;71.00;;;;;;5049645;28;20025;-78
2023/08/06 05:14:59;;;;;;;4.97;1.33;;;16.60;71.10;;;;;;5053400;28;20041;-81
2023/08/06 05:17:27;;;;;;;4.65;1.20;;;16.50;70.70;;;;;;5050512;28;20048;-79
2023/08/06 05:19:55;;;;;;;4.20;1.38;;;16.50;70.70;;;;;;5051899;28;20036;-78
2023/08/06 05:22:22;;;;;;;5.43;1.30;;;16.50;71.00;;;;;;5050294;28;20464;-79
2023/08/06 05:24:49;;;;;;;3.08;1.10;;;16.50;70.00;;;;;;5052095;28;20021;-78
2023/08/06 05:27:18;;;;;;;4.93;1.33;;;16.40;70.10;;;;;;5046258;28;20095;-83
2023/08/06 05:29:50;;;;;;;5.93;1.50;;;16.40;69.50;;;;;;5050589;28;20488;-79
2023/08/06 05:32:17;;;;;;;4.25;1.17;;;16.40;69.70;;;;;;5053298;28;20037;-79
2023/08/06 05:34:45;;;;;;;3.75;1.10;;;16.40;70.00;;;;;;5053953;28;20352;-79
2023/08/06 05:37:12;;;;;;;4.07;0.90;;;16.40;69.80;;;;;;5052824;28;20025;-79
2023/08/06 05:39:39;;;;;;;3.90;1.05;;;16.40;70.00;;;;;;5053934;28;20025;-85
2023/08/06 05:42:07;;;;;;;5.03;1.05;;;16.40;69.90;;;;;;5053243;28;20029;-80
2023/08/06 05:44:34;;;;;;;2.47;1.15;;;16.40;70.00;;;;;;5054172;28;20025;-79
2023/08/06 05:47:02;;;;;;;6.72;1.00;;;16.30;69.80;;;;;;5052855;28;20037;-79
2023/08/06 05:49:29;;;;;;;3.20;1.15;;;16.30;70.00;;;;;;5053603;28;20025;-78
2023/08/06 05:51:57;;;;;;;5.95;1.02;;;16.30;69.90;;;;;;5053745;28;20032;-80
2023/08/06 05:54:25;;;;;;;2.70;1.00;;;16.30;70.00;;;;;;5054015;28;20100;-86
2023/08/06 05:56:52;;;;;;;5.03;1.33;;;16.30;69.80;;;;;;5055940;28;20025;-78
2023/08/06 05:59:20;;;;;;;8.82;1.20;;;16.30;69.60;;;;;;5051276;28;20518;-80
2023/08/06 06:01:50;;;;;;;6.20;1.70;;;16.30;69.40;;;;;;5050994;28;20086;-80
2023/08/06 06:04:18;;;;;;;9.35;2.55;;;16.30;69.40;;;;;;5053380;28;20064;-79
2023/08/06 06:06:46;;;;;;;4.70;1.30;;;16.30;69.50;;;;;;5052500;28;20032;-80
2023/08/06 06:09:13;;;;;;;4.68;1.20;;;16.30;69.50;;;;;;5052451;28;20082;-79
2023/08/06 06:11:40;;;;;;;5.40;1.30;;;16.30;69.30;;;;;;5053326;28;20025;-78
2023/08/06 06:14:10;;;;;;;2.55;1.20;;;16.20;68.90;;;;;;5053791;28;20104;-78
2023/08/06 06:16:39;;;;;;;4.38;0.90;;;16.20;68.90;;;;;;5053719;28;20029;-80
2023/08/06 06:19:07;;;;;;;3.53;1.00;;;16.20;69.10;;;;;;5053639;28;20091;-84
2023/08/06 06:21:35;;;;;;;7.80;1.40;;;16.20;68.90;;;;;;5053359;28;20369;-81
2023/08/06 06:24:04;;;;;;;5.95;1.27;;;16.20;69.20;;;;;;5049140;28;20038;-80
2023/08/06 06:26:32;;;;;;;3.45;1.17;;;16.20;68.60;;;;;;5057593;28;20044;-79
2023/08/06 06:29:01;;;;;;;3.28;1.05;;;16.20;68.90;;;;;;5047542;28;20029;-88
2023/08/06 06:31:28;;;;;;;4.47;1.38;;;16.10;69.10;;;;;;5063753;28;20106;-80
2023/08/06 06:33:55;;;;;;;3.95;1.20;;;16.20;69.30;;;;;;5052853;28;20514;-78
2023/08/06 06:36:24;;;;;;;6.47;1.38;;;16.20;69.40;;;;;;5048438;28;20036;-80
2023/08/06 06:38:51;;;;;;;3.63;1.30;;;16.10;69.30;;;;;;5049614;28;20051;-78
2023/08/06 06:41:19;;;;;;;6.35;1.63;;;16.20;69.40;;;;;;5047440;28;20024;-79
2023/08/06 06:43:46;;;;;;;4.45;1.30;;;16.10;69.30;;;;;;5047676;28;20048;-79
2023/08/06 06:46:15;;;;;;;3.47;1.00;;;16.10;69.20;;;;;;5057309;28;20056;-79
2023/08/06 06:48:42;;;;;;;7.82;1.40;;;16.00;69.00;;;;;;5072524;28;20474;-79
2023/08/06 06:51:09;;;;;;;5.32;1.20;;;16.10;69.30;;;;;;5034078;28;20033;-79
2023/08/06 06:53:37;;;;;;;2.65;1.00;;;16.10;69.10;;;;;;5048588;28;20036;-77
2023/08/06 06:56:05;;;;;;;3.28;1.17;;;16.00;68.90;;;;;;5047194;28;20021;-78
2023/08/06 06:58:33;;;;;;;3.05;1.10;;;16.00;68.90;;;;;;5046170;28;20033;-83
2023/08/06 07:01:01;;;;;;;3.22;0.90;;;16.00;68.90;;;;;;5047856;28;20051;-78
2023/08/06 07:03:28;;;;;;;3.85;0.93;;;16.00;68.70;;;;;;5042906;28;20025;-82
2023/08/06 07:05:59;;;;;;;2.67;0.80;;;16.00;68.70;;;;;;5047351;28;20442;-78
2023/08/06 07:08:27;;;;;;;3.30;0.90;;;16.00;68.90;;;;;;5049180;28;20025;-86
2023/08/06 07:11:07;;;;;;;3.47;1.20;;;16.00;68.90;;;;;;5047669;28;20033;-85
2023/08/06 07:13:37;;;;;;;2.88;1.17;;;16.00;69.10;;;;;;5047273;28;20021;-81
2023/08/06 07:16:05;;;;;;;5.60;1.20;;;16.00;69.00;;;;;;5047902;28;20055;-80
2023/08/06 07:18:32;;;;;;;3.95;1.00;;;15.90;69.00;;;;;;5032371;28;20056;-84
2023/08/06 07:21:00;;;;;;;3.45;1.10;;;16.00;69.00;;;;;;5051004;28;20021;-80
2023/08/06 07:23:27;;;;;;;1.85;0.80;;;15.90;69.20;;;;;;5060652;28;20039;-80
2023/08/06 07:25:55;;;;;;;2.78;0.90;;;15.90;69.70;;;;;;5053350;28;20135;-79
2023/08/06 07:28:22;;;;;;;3.55;1.40;;;15.90;69.80;;;;;;5044789;28;20029;-82
2023/08/06 07:30:50;;;;;;;6.03;1.65;;;15.90;69.80;;;;;;5064095;28;20378;-83
2023/08/06 07:33:17;;;;;;;3.00;1.25;;;15.90;69.80;;;;;;5061011;28;20501;-83
2023/08/06 07:35:44;;;;;;;2.88;1.35;;;15.90;69.90;;;;;;5060690;28;20040;-79
2023/08/06 07:38:13;;;;;;;4.70;1.70;;;15.90;70.10;;;;;;5065733;28;20027;-81
2023/08/06 07:40:44;;;;;;;7.50;1.60;;;15.80;70.10;;;;;;5058149;28;20028;-80
2023/08/06 07:43:11;;;;;;;4.15;1.20;;;15.80;70.10;;;;;;5068090;28;20025;-79
2023/08/06 07:45:39;;;;;;;7.00;1.30;;;15.80;70.60;;;;;;5070163;28;20020;-78
2023/08/06 07:48:06;;;;;;;2.75;1.30;;;15.70;70.60;;;;;;5062221;28;20459;-83
2023/08/06 07:50:33;;;;;;;3.53;1.38;;;15.80;70.80;;;;;;5055505;28;20498;-82
2023/08/06 07:53:01;;;;;;;6.88;1.73;;;15.70;70.90;;;;;;5055416;28;20055;-86
2023/08/06 07:55:28;;;;;;;4.50;1.02;;;15.70;70.90;;;;;;5059670;28;20456;-85
2023/08/06 07:57:56;;;;;;;7.07;2.63;;;15.70;70.90;;;;;;5067337;28;20487;-82
2023/08/06 08:00:24;;;;;;;6.32;2.20;;;15.70;71.30;;;;;;5049953;28;20692;-87
2023/08/06 08:02:52;;;;;;;2.50;1.42;;;15.70;71.20;;;;;;5046981;28;20079;-81
2023/08/06 08:05:19;;;;;;;4.95;1.50;;;15.70;71.70;;;;;;5055046;28;20032;-83
2023/08/06 08:07:46;;;;;;;3.55;1.45;;;15.70;71.70;;;;;;5059804;28;20021;-84
2023/08/06 08:10:14;;;;;;;3.90;1.50;;;15.60;71.80;;;;;;5046499;28;20032;-86
2023/08/06 08:12:42;;;;;;;5.60;1.48;;;15.70;72.10;;;;;;5053110;28;20387;-80
2023/08/06 08:15:10;;;;;;;7.90;1.67;;;15.60;72.30;;;;;;5060361;28;20475;-80
2023/08/06 08:17:38;;;;;;;3.28;1.30;;;15.60;72.10;;;;;;5065752;28;20057;-79
2023/08/06 08:20:06;;;;;;;4.50;1.10;;;15.60;72.50;;;;;;5041712;28;20036;-84
2023/08/06 08:22:33;;;;;;;2.97;1.38;;;15.60;72.80;;;;;;5057700;28;20040;-85
2023/08/06 08:25:01;;;;;;;7.20;1.73;;;15.60;73.10;;;;;;5067338;28;20025;-84
2023/08/06 08:27:29;;;;;;;7.47;1.77;;;15.60;73.40;;;;;;5054047;28;20033;-81
2023/08/06 08:29:57;;;;;;;3.13;1.20;;;15.60;73.70;;;;;;5062838;28;20480;-80
2023/08/06 08:32:25;;;;;;;1.70;1.10;;;15.60;73.70;;;;;;5053942;28;20025;-82
2023/08/06 08:34:52;;;;;;;4.95;1.30;;;15.50;73.50;;;;;;5054830;28;20032;-80
2023/08/06 08:37:20;;;;;;;5.05;1.38;;;15.50;73.30;;;;;;5054404;28;20059;-80
2023/08/06 08:39:47;;;;;;;4.25;1.85;;;15.60;73.80;;;;;;5055288;28;20160;-84
2023/08/06 08:42:15;;;;;;;3.28;1.35;;;15.50;74.00;;;;;;5043646;28;20059;-86
2023/08/06 08:44:43;;;;;;;3.25;1.25;;;15.50;74.00;;;;;;5057392;28;20036;-79
2023/08/06 08:47:16;;;;;;;3.97;1.17;;;15.40;74.10;;;;;;5052007;28;20129;-78
2023/08/06 08:49:44;;;;;;;4.18;1.38;;;15.50;74.10;;;;;;5055659;28;20043;-80
2023/08/06 08:52:12;;;;;;;4.10;1.10;;;15.50;74.40;;;;;;5054062;28;20075;-85
2023/08/06 08:54:41;;;;;;;3.35;1.48;;;15.40;74.30;;;;;;5053446;28;20048;-85
2023/08/06 08:57:09;;;;;;;5.50;2.15;;;15.40;74.20;;;;;;5063399;28;20425;-84
2023/08/06 08:59:36;;;;;;;5.03;1.80;;;15.40;74.20;;;;;;5052572;28;20052;-84
2023/08/06 09:02:06;;;;;;;4.32;1.50;;;15.30;74.40;;;;;;5047165;28;20422;-83
2023/08/06 09:04:35;;;;;;;6.13;2.15;;;15.30;74.30;;;;;;5051726;28;20024;-80
2023/08/06 09:07:04;;;;;;;4.32;1.77;;;15.30;74.40;;;;;;5053460;28;20062;-80
2023/08/06 09:09:38;;;;;;;3.55;1.83;;;15.30;74.60;;;;;;5055373;28;20477;-79
2023/08/06 09:12:17;;;;;;;3.95;2.25;;;15.20;74.60;;;;;;5057625;28;20487;-85
2023/08/06 09:14:44;;;;;;;5.22;2.47;;;15.30;74.70;;;;;;5057536;28;20518;-84
2023/08/06 09:17:12;;;;;;;7.57;2.50;;;15.20;74.80;;;;;;5049738;28;20049;-80
2023/08/06 09:19:48;;;;;;;6.88;2.75;;;15.30;74.80;;;;;;5039518;28;20033;-82
2023/08/06 09:22:16;;;;;;;4.40;2.35;;;15.20;74.90;;;;;;5052070;28;20089;-85
2023/08/06 09:24:44;;;;;;;4.20;2.00;;;15.30;75.30;;;;;;5051907;28;20032;-85
2023/08/06 09:27:15;;;;;;;4.63;2.17;;;15.20;74.90;;;;;;5056308;28;20043;-80
2023/08/06 09:29:45;;;;;;;3.30;1.70;;;15.20;74.90;;;;;;5037614;28;20029;-79
2023/08/06 09:32:13;;;;;;;4.90;1.90;;;15.20;75.10;;;;;;5049900;28;20356;-84
2023/08/06 09:34:46;;;;;;;4.30;1.52;;;15.30;75.10;;;;;;5046320;28;20076;-85
2023/08/06 09:37:13;;;;;;;3.83;1.70;;;15.20;75.10;;;;;;5057163;28;20475;-81
2023/08/06 09:39:42;;;;;;;5.40;1.90;;;15.20;75.00;;;;;;5041000;28;20467;-86
2023/08/06 09:42:10;;;;;;;5.82;1.80;;;15.20;74.80;;;;;;5046904;28;20025;-85
2023/08/06 09:44:40;;;;;;;4.15;2.08;;;15.20;75.10;;;;;;5058750;28;20032;-79
2023/08/06 09:47:08;;;;;;;5.90;1.95;;;15.20;74.70;;;;;;5048930;28;20433;-84
2023/08/06 09:49:35;;;;;;;4.03;1.55;;;15.20;74.70;;;;;;5037601;28;20103;-83
2023/08/06 09:52:03;;;;;;;5.18;2.20;;;15.20;74.40;;;;;;5054485;28;20095;-82
2023/08/06 09:54:32;;;;;;;5.68;2.00;;;15.20;74.40;;;;;;5058242;28;20066;-81
2023/08/06 09:57:00;;;;;;;3.78;1.45;;;15.20;74.40;;;;;;5054466;28;20024;-82
2023/08/06 09:59:28;;;;;;;5.53;1.85;;;15.20;74.10;;;;;;5054785;28;20033;-82
2023/08/06 10:01:56;;;;;;;7.93;2.10;;;15.20;74.00;;;;;;5039179;28;20388;-80
2023/08/06 10:04:23;;;;;;;5.40;2.08;;;15.20;74.30;;;;;;5043136;28;20024;-80
2023/08/06 10:06:51;;;;;;;4.82;1.80;;;15.20;75.10;;;;;;5038528;28;20510;-79
2023/08/06 10:09:19;;;;;;;6.38;2.22;;;15.20;75.10;;;;;;5042021;28;20029;-79
2023/08/06 10:11:54;;;;;;;7.15;2.28;;;15.20;75.20;;;;;;5040164;28;20458;-80
2023/08/06 10:14:44;;;;;;;5.20;1.75;;;15.20;75.20;;;;;;5049502;28;20067;-82
2023/08/06 10:17:12;;;;;;;7.20;2.53;;;15.20;75.40;;;;;;5055551;28;20120;-86
2023/08/06 10:19:39;;;;;;;7.45;2.50;;;15.30;75.50;;;;;;5048492;28;20029;-80
2023/08/06 10:22:15;;;;;;;6.88;1.95;;;15.20;75.30;;;;;;5046641;28;20047;-82
2023/08/06 10:25:04;;;;;;;5.53;1.60;;;15.20;75.30;;;;;;5043375;28;20025;-83
2023/08/06 10:27:34;;;;;;;3.58;2.00;;;15.20;75.60;;;;;;5049454;28;20127;-80
2023/08/06 10:30:27;;;;;;;9.88;2.53;;;15.20;75.60;;;;;;5051514;28;20112;-87
2023/08/06 10:33:02;;;;;;;3.08;1.77;;;15.20;75.50;;;;;;5042509;28;20399;-80
2023/08/06 10:35:35;;;;;;;4.97;1.85;;;15.20;75.60;;;;;;5048397;28;20040;-82
2023/08/06 10:38:10;;;;;;;8.45;2.45;;;15.20;75.40;;;;;;5054211;28;20021;-85
2023/08/06 10:40:57;;;;;;;7.07;2.22;;;15.10;75.10;;;;;;5058695;28;20044;-85
2023/08/06 10:43:29;;;;;;;6.60;2.90;;;15.10;75.80;;;;;;5038422;28;20383;-80
2023/08/06 10:46:18;;;;;;;7.65;2.72;;;15.10;75.70;;;;;;5041769;28;20028;-80
2023/08/06 10:48:47;;;;;;;4.30;2.38;;;15.00;75.40;;;;;;5040891;28;20119;-83
2023/08/06 10:51:15;;;;;;;7.38;2.45;;;15.00;75.60;;;;;;5041732;28;20367;-81
2023/08/06 10:53:47;;;;;;;4.25;2.30;;;14.90;75.80;;;;;;5046331;28;20416;-80
2023/08/06 10:56:22;;;;;;;6.25;2.33;;;14.90;75.90;;;;;;5046745;28;20029;-81
2023/08/06 10:58:52;;;;;;;11.02;2.78;;;14.80;75.80;;;;;;5041729;28;20021;-89
2023/08/06 11:01:20;;;;;;;7.00;2.78;;;14.80;75.70;;;;;;5048815;28;20544;-82
2023/08/06 11:03:50;;;;;;;6.70;2.33;;;14.80;76.20;;;;;;5040175;28;20038;-87
2023/08/06 11:06:22;;;;;;;7.03;2.95;;;14.80;76.50;;;;;;5070678;28;20041;-87
2023/08/06 11:08:55;;;;;;;9.60;2.78;;;14.70;76.70;;;;;;5047947;28;20040;-80
2023/08/06 11:11:24;;;;;;;5.53;2.00;;;14.80;76.70;;;;;;5041009;28;20029;-86
2023/08/06 11:13:53;;;;;;;7.32;2.22;;;14.70;77.20;;;;;;5050129;28;20104;-80
2023/08/06 11:16:24;;;;;;;7.57;2.20;;;14.80;77.20;;;;;;5057001;28;20413;-81
2023/08/06 11:18:54;;;;;;;5.13;2.20;;;14.80;76.80;;;;;;5048601;28;20490;-82
2023/08/06 11:21:27;;;;;;;11.63;2.80;;;14.70;76.50;;;;;;5062091;28;20446;-80
2023/08/06 11:23:54;;;;;;;6.68;1.92;;;14.70;76.70;;;;;;5039950;28;20049;-78
2023/08/06 11:26:25;;;;;;;6.68;2.25;;;14.70;76.40;;;;;;5050065;28;20048;-81
2023/08/06 11:28:52;;;;;;;5.60;2.20;;;14.70;76.80;;;;;;5051451;28;20021;-81
2023/08/06 11:31:21;;;;;;;4.93;2.42;;;14.60;76.90;;;;;;5057977;28;20538;-78
2023/08/06 11:33:52;;;;;;;7.18;2.58;;;14.70;77.60;;;;;;5064246;28;20021;-80
2023/08/06 11:36:30;;;;;;;4.20;1.80;;;14.60;77.50;;;;;;5050060;28;20425;-81
2023/08/06 11:39:00;;;;;;;3.65;1.58;;;14.60;77.30;;;;;;5042215;28;20051;-81
2023/08/06 11:41:40;;;;;;;4.80;2.00;;;14.60;77.60;;;;;;5046763;28;20029;-80
2023/08/06 11:44:13;;;;;;;4.32;1.70;;;14.60;77.10;;;;;;5042379;28;20025;-80
2023/08/06 11:46:59;;;;;;;4.28;1.88;;;14.60;77.20;;;;;;5043718;28;20043;-84
2023/08/06 11:49:49;;;;;;;4.53;1.77;;;14.70;77.70;;;;;;5040589;28;20026;-82
2023/08/06 11:52:21;;;;;;;6.93;2.10;;;14.50;76.90;;;;;;5042672;28;20029;-82
2023/08/06 11:55:10;;;;;;;5.00;2.03;;;14.50;76.90;;;;;;5066156;28;20025;-82
2023/08/06 11:57:46;;;;;;;3.35;1.83;;;14.50;77.00;;;;;;5044054;28;20041;-78
2023/08/06 12:00:16;;;;;;;3.97;1.88;;;14.50;77.60;;;;;;5036936;28;20044;-79
2023/08/06 12:02:46;;;;;;;5.25;2.03;;;14.50;77.40;;;;;;5038821;28;20416;-78
2023/08/06 12:05:14;;;;;;;4.93;2.13;;;14.50;77.50;;;;;;5041706;28;20030;-78
2023/08/06 12:07:48;;;;;;;4.47;2.15;;;14.40;77.20;;;;;;5047223;28;20061;-76
2023/08/06 12:10:17;;;;;;;9.18;2.53;;;14.40;77.10;;;;;;5039450;28;20539;-78
2023/08/06 12:12:44;;;;;;;3.83;1.95;;;14.40;77.70;;;;;;5040404;28;20040;-77
2023/08/06 12:15:12;;;;;;;4.75;2.17;;;14.40;77.10;;;;;;5051083;28;20083;-80
2023/08/06 12:17:40;;;;;;;5.60;2.30;;;14.40;77.50;;;;;;5051832;28;20053;-77
2023/08/06 12:20:08;;;;;;;3.88;2.10;;;14.30;77.00;;;;;;5053514;28;20036;-79
2023/08/06 12:22:39;;;;;;;5.38;2.20;;;14.30;77.10;;;;;;5050699;28;20020;-79
2023/08/06 12:25:12;;;;;;;5.88;2.10;;;14.20;76.90;;;;;;5052564;28;20031;-77
2023/08/06 12:27:44;;;;;;;4.03;2.08;;;14.20;76.60;;;;;;5053407;28;20071;-79
2023/08/06 12:30:13;;;;;;;5.07;2.08;;;14.10;76.40;;;;;;5053188;28;20052;-77
2023/08/06 12:32:40;;;;;;;8.25;1.95;;;14.00;76.80;;;;;;5047717;28;20476;-79
2023/08/06 12:35:08;;;;;;;5.45;2.00;;;14.00;76.80;;;;;;5050143;28;20128;-77
2023/08/06 12:37:38;;;;;;;6.65;2.10;;;14.00;76.90;;;;;;5048541;28;20033;-78
2023/08/06 12:40:06;;;;;;;6.47;2.28;;;13.90;76.50;;;;;;5050908;28;20016;-77
2023/08/06 12:42:34;;;;;;;5.60;2.20;;;14.00;77.30;;;;;;5051733;28;20037;-77
2023/08/06 12:45:02;;;;;;;4.60;1.95;;;14.00;77.50;;;;;;5050330;28;20028;-77
2023/08/06 12:47:29;;;;;;;8.88;2.33;;;14.00;77.40;;;;;;5051492;28;20502;-78
2023/08/06 12:49:57;;;;;;;4.57;2.30;;;14.00;77.60;;;;;;5048560;28;20017;-77
2023/08/06 12:52:24;;;;;;;7.07;2.22;;;14.00;77.20;;;;;;5048073;28;20033;-77
2023/08/06 12:54:52;;;;;;;6.82;2.65;;;13.90;77.10;;;;;;5050082;28;20029;-78